ITY1174 LICA-LIML
Flight info
| Callsign | ITY1174 |
|---|---|
| Flight time | 1h 48m |
| Altitude | 36000 |
| Route | ARBUM M620 EVINO DCT SOR DCT LAT DCT OST DCT MEDAL DCT GILIO DCT KARDU DCT EMBOS DCT GIPIX DCT KALMO |
| Aircraft | A320/M-SDE3FGHIRWY/LB1 |
Departure
| Time | 2026-05-07 13:22 |
|---|---|
| Airport | Lamezia Terme Sant'Eufemia International Airport (LICA) |
Arrival
| Time | 2026-05-07 15:10 |
|---|---|
| Airport | Milano Linate Airport (LIML) |
| Time | Latitude | Longitude | Altitude | Speed | Heading |
|---|---|---|---|---|---|
| 2026-05-07 12:43 | 38.90859 | 16.24607 | 32 ft | 0 kts | 53° |
| 2026-05-07 13:14 | 38.90860 | 16.24609 | 32 ft | 1 kts | 53° |
| 2026-05-07 13:14 | 38.90860 | 16.24620 | 32 ft | 1 kts | 93° |
| 2026-05-07 13:14 | 38.90854 | 16.24630 | 30 ft | 2 kts | 133° |
| 2026-05-07 13:15 | 38.90838 | 16.24633 | 32 ft | 2 kts | 183° |
| 2026-05-07 13:15 | 38.90832 | 16.24628 | 32 ft | 1 kts | 212° |
| 2026-05-07 13:15 | 38.90813 | 16.24605 | 31 ft | 5 kts | 223° |
| 2026-05-07 13:15 | 38.90776 | 16.24583 | 32 ft | 6 kts | 185° |
| 2026-05-07 13:16 | 38.90744 | 16.24583 | 32 ft | 4 kts | 208° |
| 2026-05-07 13:16 | 38.90728 | 16.24545 | 32 ft | 7 kts | 262° |
| 2026-05-07 13:16 | 38.90734 | 16.24481 | 32 ft | 8 kts | 277° |
| 2026-05-07 13:16 | 38.90743 | 16.24399 | 32 ft | 11 kts | 279° |
| 2026-05-07 13:17 | 38.90756 | 16.24295 | 31 ft | 13 kts | 278° |
| 2026-05-07 13:17 | 38.90770 | 16.24172 | 32 ft | 14 kts | 278° |
| 2026-05-07 13:17 | 38.90784 | 16.24055 | 32 ft | 13 kts | 278° |
| 2026-05-07 13:17 | 38.90797 | 16.23944 | 32 ft | 13 kts | 278° |
| 2026-05-07 13:18 | 38.90811 | 16.23825 | 32 ft | 14 kts | 279° |
| 2026-05-07 13:18 | 38.90826 | 16.23696 | 32 ft | 14 kts | 278° |
| 2026-05-07 13:18 | 38.90840 | 16.23576 | 31 ft | 13 kts | 278° |
| 2026-05-07 13:18 | 38.90853 | 16.23470 | 32 ft | 12 kts | 278° |
| 2026-05-07 13:19 | 38.90865 | 16.23355 | 32 ft | 13 kts | 278° |
| 2026-05-07 13:19 | 38.90878 | 16.23230 | 32 ft | 15 kts | 273° |
| 2026-05-07 13:19 | 38.90866 | 16.23104 | 31 ft | 14 kts | 250° |
| 2026-05-07 13:19 | 38.90824 | 16.23006 | 32 ft | 11 kts | 236° |
| 2026-05-07 13:20 | 38.90776 | 16.22929 | 33 ft | 12 kts | 227° |
| 2026-05-07 13:20 | 38.90707 | 16.22923 | 33 ft | 8 kts | 155° |
| 2026-05-07 13:20 | 38.90687 | 16.22971 | 33 ft | 6 kts | 100° |
| 2026-05-07 13:20 | 38.90686 | 16.22983 | 34 ft | 0 kts | 98° |
| 2026-05-07 13:21 | 38.90686 | 16.22985 | 34 ft | 3 kts | 98° |
| 2026-05-07 13:21 | 38.90657 | 16.23229 | 38 ft | 60 kts | 98° |
| 2026-05-07 13:21 | 38.90563 | 16.24038 | 29 ft | 121 kts | 98° |
| 2026-05-07 13:22 | 38.90415 | 16.25268 | 244 ft | 147 kts | 97° |
| 2026-05-07 13:22 | 38.90243 | 16.26557 | 933 ft | 146 kts | 95° |
| 2026-05-07 13:22 | 38.90053 | 16.27858 | 1538 ft | 155 kts | 98° |
| 2026-05-07 13:22 | 38.89839 | 16.29314 | 1851 ft | 177 kts | 101° |
| 2026-05-07 13:23 | 38.89590 | 16.30974 | 2181 ft | 202 kts | 103° |
| 2026-05-07 13:23 | 38.89311 | 16.32845 | 2638 ft | 224 kts | 102° |
| 2026-05-07 13:23 | 38.89012 | 16.34878 | 3287 ft | 236 kts | 102° |
| 2026-05-07 13:23 | 38.88710 | 16.36959 | 4206 ft | 238 kts | 103° |
| 2026-05-07 13:24 | 38.88405 | 16.39072 | 5070 ft | 242 kts | 104° |
| 2026-05-07 13:24 | 38.88092 | 16.41232 | 5805 ft | 251 kts | 105° |
| 2026-05-07 13:24 | 38.87769 | 16.43460 | 6610 ft | 257 kts | 104° |
| 2026-05-07 13:24 | 38.87439 | 16.45735 | 7344 ft | 262 kts | 105° |
| 2026-05-07 13:25 | 38.87215 | 16.47271 | 7833 ft | 268 kts | 105° |
| 2026-05-07 13:25 | 38.86867 | 16.49650 | 8524 ft | 275 kts | 105° |
| 2026-05-07 13:25 | 38.86510 | 16.52105 | 9198 ft | 283 kts | 106° |
| 2026-05-07 13:25 | 38.86103 | 16.54603 | 9883 ft | 288 kts | 115° |
| 2026-05-07 13:26 | 38.85183 | 16.56845 | 10462 ft | 284 kts | 135° |
| 2026-05-07 13:26 | 38.83664 | 16.58540 | 10732 ft | 299 kts | 155° |
| 2026-05-07 13:26 | 38.81657 | 16.59361 | 11026 ft | 311 kts | 177° |
| 2026-05-07 13:26 | 38.79499 | 16.59087 | 11561 ft | 315 kts | 199° |
| 2026-05-07 13:27 | 38.77580 | 16.57744 | 12259 ft | 317 kts | 221° |
| 2026-05-07 13:27 | 38.76209 | 16.55519 | 12901 ft | 325 kts | 244° |
| 2026-05-07 13:27 | 38.75680 | 16.52693 | 13577 ft | 334 kts | 268° |
| 2026-05-07 13:27 | 38.76182 | 16.49763 | 14155 ft | 345 kts | 294° |
| 2026-05-07 13:28 | 38.77622 | 16.47266 | 14744 ft | 353 kts | 308° |
| 2026-05-07 13:28 | 38.79166 | 16.44824 | 15392 ft | 353 kts | 305° |
| 2026-05-07 13:28 | 38.80712 | 16.42372 | 16015 ft | 355 kts | 306° |
| 2026-05-07 13:28 | 38.82283 | 16.39916 | 16633 ft | 358 kts | 305° |
| 2026-05-07 13:29 | 38.83854 | 16.37433 | 17268 ft | 359 kts | 304° |
| 2026-05-07 13:29 | 38.85416 | 16.34914 | 17904 ft | 361 kts | 304° |
| 2026-05-07 13:29 | 38.86964 | 16.32366 | 18513 ft | 363 kts | 303° |
| 2026-05-07 13:29 | 38.88509 | 16.29798 | 19085 ft | 364 kts | 303° |
| 2026-05-07 13:30 | 38.90057 | 16.27228 | 19678 ft | 365 kts | 305° |
| 2026-05-07 13:30 | 38.91822 | 16.24859 | 20262 ft | 370 kts | 311° |
| 2026-05-07 13:30 | 38.93681 | 16.22573 | 20826 ft | 371 kts | 311° |
| 2026-05-07 13:30 | 38.95549 | 16.20277 | 21400 ft | 372 kts | 311° |
| 2026-05-07 13:31 | 38.97421 | 16.17974 | 21967 ft | 373 kts | 310° |
| 2026-05-07 13:31 | 38.99299 | 16.15660 | 22536 ft | 375 kts | 310° |
| 2026-05-07 13:31 | 39.01191 | 16.13333 | 23103 ft | 377 kts | 310° |
| 2026-05-07 13:31 | 39.03088 | 16.10998 | 23635 ft | 379 kts | 310° |
| 2026-05-07 13:32 | 39.04967 | 16.08683 | 24078 ft | 379 kts | 310° |
| 2026-05-07 13:32 | 39.06869 | 16.06329 | 24507 ft | 380 kts | 310° |
| 2026-05-07 13:32 | 39.08771 | 16.03968 | 24946 ft | 380 kts | 309° |
| 2026-05-07 13:32 | 39.10680 | 16.01603 | 25375 ft | 381 kts | 309° |
| 2026-05-07 13:33 | 39.12590 | 15.99238 | 25802 ft | 381 kts | 309° |
| 2026-05-07 13:33 | 39.14509 | 15.96859 | 26155 ft | 384 kts | 309° |
| 2026-05-07 13:33 | 39.16429 | 15.94474 | 26597 ft | 383 kts | 309° |
| 2026-05-07 13:33 | 39.18349 | 15.92092 | 27006 ft | 384 kts | 309° |
| 2026-05-07 13:34 | 39.20274 | 15.89705 | 27413 ft | 384 kts | 309° |
| 2026-05-07 13:34 | 39.24119 | 15.84925 | 28192 ft | 385 kts | 309° |
| 2026-05-07 13:34 | 39.26045 | 15.82522 | 28568 ft | 385 kts | 308° |
| 2026-05-07 13:35 | 39.27970 | 15.80118 | 28931 ft | 386 kts | 309° |
| 2026-05-07 13:35 | 39.29957 | 15.77772 | 29253 ft | 389 kts | 311° |
| 2026-05-07 13:35 | 39.32016 | 15.75487 | 29610 ft | 391 kts | 312° |
| 2026-05-07 13:35 | 39.34106 | 15.73238 | 29951 ft | 392 kts | 312° |
| 2026-05-07 13:36 | 39.36208 | 15.70993 | 30230 ft | 393 kts | 312° |
| 2026-05-07 13:36 | 39.38313 | 15.68734 | 30485 ft | 393 kts | 311° |
| 2026-05-07 13:36 | 39.40409 | 15.66463 | 30735 ft | 394 kts | 311° |
| 2026-05-07 13:36 | 39.42498 | 15.64172 | 31018 ft | 394 kts | 311° |
| 2026-05-07 13:37 | 39.44588 | 15.61854 | 31191 ft | 397 kts | 311° |
| 2026-05-07 13:37 | 39.46682 | 15.59523 | 31394 ft | 398 kts | 311° |
| 2026-05-07 13:37 | 39.48782 | 15.57188 | 31646 ft | 398 kts | 310° |
| 2026-05-07 13:37 | 39.50880 | 15.54862 | 31988 ft | 395 kts | 310° |
| 2026-05-07 13:38 | 39.52962 | 15.52555 | 32344 ft | 393 kts | 310° |
| 2026-05-07 13:38 | 39.55009 | 15.50292 | 32693 ft | 390 kts | 310° |
| 2026-05-07 13:38 | 39.57065 | 15.48016 | 33048 ft | 388 kts | 309° |
| 2026-05-07 13:38 | 39.59105 | 15.45753 | 33402 ft | 385 kts | 309° |
| 2026-05-07 13:39 | 39.61130 | 15.43502 | 33760 ft | 382 kts | 308° |
| 2026-05-07 13:39 | 39.63143 | 15.41260 | 34084 ft | 380 kts | 308° |
| 2026-05-07 13:39 | 39.65141 | 15.39033 | 34379 ft | 378 kts | 308° |
| 2026-05-07 13:39 | 39.67131 | 15.36812 | 34646 ft | 376 kts | 308° |
| 2026-05-07 13:40 | 39.69108 | 15.34604 | 34897 ft | 375 kts | 308° |
| 2026-05-07 13:40 | 39.71082 | 15.32400 | 35142 ft | 373 kts | 308° |
| 2026-05-07 13:40 | 39.73051 | 15.30206 | 35384 ft | 372 kts | 308° |
| 2026-05-07 13:40 | 39.75014 | 15.28019 | 35594 ft | 371 kts | 308° |
| 2026-05-07 13:41 | 39.76972 | 15.25832 | 35772 ft | 372 kts | 308° |
| 2026-05-07 13:41 | 39.78931 | 15.23642 | 35920 ft | 372 kts | 308° |
| 2026-05-07 13:41 | 39.80888 | 15.21452 | 35957 ft | 370 kts | 308° |
| 2026-05-07 13:42 | 39.84782 | 15.17090 | 35952 ft | 369 kts | 307° |
| 2026-05-07 13:42 | 39.88666 | 15.12719 | 35953 ft | 369 kts | 307° |
| 2026-05-07 13:43 | 39.92554 | 15.08351 | 35980 ft | 369 kts | 307° |
| 2026-05-07 13:43 | 39.96431 | 15.04000 | 35956 ft | 367 kts | 307° |
| 2026-05-07 13:44 | 40.00299 | 14.99652 | 35951 ft | 367 kts | 307° |
| 2026-05-07 13:44 | 40.04156 | 14.95301 | 35950 ft | 367 kts | 307° |
| 2026-05-07 13:45 | 40.08007 | 14.90937 | 35956 ft | 367 kts | 307° |
| 2026-05-07 13:45 | 40.11837 | 14.86592 | 35947 ft | 367 kts | 307° |
| 2026-05-07 13:46 | 40.15699 | 14.82216 | 35943 ft | 368 kts | 307° |
| 2026-05-07 13:46 | 40.19566 | 14.77827 | 35970 ft | 368 kts | 307° |
| 2026-05-07 13:47 | 40.23431 | 14.73431 | 35966 ft | 368 kts | 307° |
| 2026-05-07 13:47 | 40.27293 | 14.69029 | 35956 ft | 368 kts | 307° |
| 2026-05-07 13:48 | 40.31148 | 14.64624 | 35956 ft | 368 kts | 307° |
| 2026-05-07 13:48 | 40.35003 | 14.60211 | 35956 ft | 368 kts | 307° |
| 2026-05-07 13:49 | 40.38859 | 14.55795 | 35953 ft | 368 kts | 307° |
| 2026-05-07 13:49 | 40.42721 | 14.51382 | 35948 ft | 368 kts | 307° |
| 2026-05-07 13:50 | 40.46573 | 14.46961 | 35977 ft | 368 kts | 307° |
| 2026-05-07 13:50 | 40.50402 | 14.42560 | 35968 ft | 368 kts | 307° |
| 2026-05-07 13:51 | 40.54256 | 14.38125 | 35965 ft | 368 kts | 307° |
| 2026-05-07 13:51 | 40.58117 | 14.33640 | 35963 ft | 365 kts | 304° |
| 2026-05-07 13:52 | 40.61498 | 14.28832 | 35959 ft | 360 kts | 301° |
| 2026-05-07 13:52 | 40.64863 | 14.23955 | 35961 ft | 360 kts | 301° |
| 2026-05-07 13:53 | 40.68228 | 14.19070 | 35976 ft | 360 kts | 301° |
| 2026-05-07 13:53 | 40.71607 | 14.14152 | 35987 ft | 363 kts | 302° |
| 2026-05-07 13:54 | 40.75007 | 14.09213 | 35966 ft | 364 kts | 303° |
| 2026-05-07 13:54 | 40.78419 | 14.04261 | 35961 ft | 365 kts | 302° |
| 2026-05-07 13:55 | 40.81821 | 13.99297 | 35960 ft | 365 kts | 302° |
| 2026-05-07 13:55 | 40.85230 | 13.94322 | 35962 ft | 365 kts | 302° |
| 2026-05-07 13:56 | 40.88636 | 13.89337 | 35962 ft | 365 kts | 302° |
| 2026-05-07 13:56 | 40.92033 | 13.84347 | 35974 ft | 365 kts | 302° |
| 2026-05-07 13:57 | 40.95431 | 13.79340 | 36002 ft | 366 kts | 303° |
| 2026-05-07 13:57 | 40.98843 | 13.74308 | 35966 ft | 368 kts | 303° |
| 2026-05-07 13:58 | 41.02276 | 13.69253 | 35956 ft | 370 kts | 303° |
| 2026-05-07 13:58 | 41.05692 | 13.64217 | 35959 ft | 370 kts | 303° |
| 2026-05-07 13:59 | 41.09135 | 13.59130 | 35958 ft | 371 kts | 303° |
| 2026-05-07 13:59 | 41.12577 | 13.54030 | 35960 ft | 371 kts | 303° |
| 2026-05-07 14:00 | 41.16014 | 13.48923 | 35976 ft | 371 kts | 302° |
| 2026-05-07 14:00 | 41.19459 | 13.43806 | 35969 ft | 372 kts | 302° |
| 2026-05-07 14:01 | 41.22910 | 13.38673 | 35978 ft | 373 kts | 302° |
| 2026-05-07 14:01 | 41.26364 | 13.33523 | 35967 ft | 374 kts | 302° |
| 2026-05-07 14:02 | 41.29818 | 13.28357 | 35964 ft | 374 kts | 302° |
| 2026-05-07 14:02 | 41.33281 | 13.23178 | 35967 ft | 375 kts | 303° |
| 2026-05-07 14:03 | 41.36739 | 13.18002 | 35962 ft | 374 kts | 302° |
| 2026-05-07 14:03 | 41.40194 | 13.12812 | 35982 ft | 374 kts | 302° |
| 2026-05-07 14:04 | 41.43625 | 13.07641 | 35972 ft | 375 kts | 302° |
| 2026-05-07 14:04 | 41.47084 | 13.02422 | 35983 ft | 377 kts | 302° |
| 2026-05-07 14:05 | 41.50562 | 12.97170 | 35982 ft | 379 kts | 302° |
| 2026-05-07 14:05 | 41.53970 | 12.91827 | 35977 ft | 373 kts | 296° |
| 2026-05-07 14:06 | 41.56440 | 12.85849 | 35979 ft | 367 kts | 290° |
| 2026-05-07 14:06 | 41.58797 | 12.79782 | 35983 ft | 368 kts | 290° |
| 2026-05-07 14:07 | 41.61158 | 12.73704 | 35993 ft | 369 kts | 290° |
| 2026-05-07 14:07 | 41.63522 | 12.67607 | 35966 ft | 369 kts | 290° |
| 2026-05-07 14:08 | 41.65884 | 12.61505 | 35986 ft | 370 kts | 290° |
| 2026-05-07 14:08 | 41.68242 | 12.55392 | 35995 ft | 370 kts | 290° |
| 2026-05-07 14:09 | 41.70601 | 12.49271 | 35990 ft | 370 kts | 290° |
| 2026-05-07 14:09 | 41.72952 | 12.43144 | 35990 ft | 370 kts | 290° |
| 2026-05-07 14:10 | 41.75296 | 12.37029 | 35993 ft | 373 kts | 290° |
| 2026-05-07 14:10 | 41.77674 | 12.30823 | 35955 ft | 375 kts | 290° |
| 2026-05-07 14:11 | 41.80060 | 12.24584 | 35954 ft | 377 kts | 289° |
| 2026-05-07 14:11 | 41.82026 | 12.18141 | 36071 ft | 374 kts | 285° |
| 2026-05-07 14:12 | 41.83930 | 12.11647 | 36085 ft | 374 kts | 285° |
| 2026-05-07 14:12 | 41.85834 | 12.05142 | 36089 ft | 375 kts | 285° |
| 2026-05-07 14:13 | 41.87734 | 11.98622 | 36084 ft | 376 kts | 285° |
| 2026-05-07 14:13 | 41.89636 | 11.92068 | 36061 ft | 377 kts | 285° |
| 2026-05-07 14:14 | 41.91539 | 11.85499 | 36038 ft | 378 kts | 285° |
| 2026-05-07 14:14 | 41.93445 | 11.78916 | 36018 ft | 378 kts | 285° |
| 2026-05-07 14:15 | 41.95352 | 11.72327 | 36002 ft | 379 kts | 285° |
| 2026-05-07 14:15 | 41.97255 | 11.65726 | 36000 ft | 379 kts | 285° |
| 2026-05-07 14:16 | 41.99151 | 11.59109 | 35992 ft | 380 kts | 285° |
| 2026-05-07 14:16 | 42.01046 | 11.52482 | 35983 ft | 380 kts | 285° |
| 2026-05-07 14:17 | 42.02946 | 11.45839 | 35987 ft | 381 kts | 285° |
| 2026-05-07 14:17 | 42.04909 | 11.39266 | 36004 ft | 385 kts | 291° |
| 2026-05-07 14:18 | 42.08221 | 11.33424 | 35991 ft | 401 kts | 305° |
| 2026-05-07 14:18 | 42.12064 | 11.27972 | 36000 ft | 402 kts | 305° |
| 2026-05-07 14:19 | 42.15901 | 11.22485 | 35988 ft | 403 kts | 305° |
| 2026-05-07 14:19 | 42.19745 | 11.16971 | 35989 ft | 404 kts | 305° |
| 2026-05-07 14:20 | 42.22971 | 11.12343 | 35987 ft | 404 kts | 305° |
| 2026-05-07 14:20 | 42.26803 | 11.06845 | 35993 ft | 405 kts | 305° |
| 2026-05-07 14:21 | 42.30675 | 11.01267 | 35995 ft | 404 kts | 305° |
| 2026-05-07 14:21 | 42.34491 | 10.95749 | 35996 ft | 404 kts | 305° |
| 2026-05-07 14:22 | 42.39919 | 10.90408 | 35995 ft | 427 kts | 324° |
| 2026-05-07 14:22 | 42.44348 | 10.87463 | 35993 ft | 427 kts | 324° |
| 2026-05-07 14:23 | 42.49676 | 10.83892 | 35993 ft | 427 kts | 324° |
| 2026-05-07 14:23 | 42.55000 | 10.80306 | 36011 ft | 428 kts | 324° |
| 2026-05-07 14:24 | 42.60332 | 10.76703 | 36005 ft | 428 kts | 324° |
| 2026-05-07 14:24 | 42.65669 | 10.73094 | 36005 ft | 428 kts | 324° |
| 2026-05-07 14:25 | 42.71001 | 10.69480 | 36005 ft | 429 kts | 324° |
| 2026-05-07 14:25 | 42.76337 | 10.65859 | 36025 ft | 429 kts | 324° |
| 2026-05-07 14:26 | 42.81676 | 10.62221 | 36015 ft | 429 kts | 324° |
| 2026-05-07 14:26 | 42.87018 | 10.58575 | 36008 ft | 429 kts | 324° |
| 2026-05-07 14:27 | 42.92351 | 10.54925 | 36021 ft | 429 kts | 324° |
| 2026-05-07 14:27 | 42.97764 | 10.51432 | 36017 ft | 437 kts | 333° |
| 2026-05-07 14:28 | 43.03784 | 10.49542 | 36007 ft | 447 kts | 341° |
| 2026-05-07 14:28 | 43.09900 | 10.47957 | 36001 ft | 448 kts | 341° |
| 2026-05-07 14:29 | 43.15975 | 10.46355 | 36033 ft | 448 kts | 341° |
| 2026-05-07 14:29 | 43.22096 | 10.44734 | 36026 ft | 448 kts | 341° |
| 2026-05-07 14:30 | 43.28218 | 10.43113 | 36017 ft | 448 kts | 341° |
| 2026-05-07 14:30 | 43.34342 | 10.41496 | 36012 ft | 448 kts | 341° |
| 2026-05-07 14:31 | 43.40465 | 10.39876 | 36024 ft | 448 kts | 341° |
| 2026-05-07 14:31 | 43.46584 | 10.38245 | 35778 ft | 447 kts | 341° |
| 2026-05-07 14:31 | 43.49638 | 10.37431 | 35108 ft | 447 kts | 341° |
| 2026-05-07 14:32 | 43.52699 | 10.36613 | 34469 ft | 447 kts | 341° |
| 2026-05-07 14:32 | 43.55735 | 10.35804 | 34012 ft | 442 kts | 341° |
| 2026-05-07 14:32 | 43.58741 | 10.35005 | 33500 ft | 438 kts | 341° |
| 2026-05-07 14:32 | 43.61720 | 10.34212 | 32983 ft | 433 kts | 341° |
| 2026-05-07 14:33 | 43.64667 | 10.33429 | 32465 ft | 429 kts | 341° |
| 2026-05-07 14:33 | 43.67586 | 10.32653 | 31964 ft | 425 kts | 341° |
| 2026-05-07 14:33 | 43.70478 | 10.31878 | 31468 ft | 422 kts | 341° |
| 2026-05-07 14:33 | 43.73344 | 10.31106 | 30966 ft | 418 kts | 340° |
| 2026-05-07 14:34 | 43.76189 | 10.30334 | 30523 ft | 414 kts | 341° |
| 2026-05-07 14:34 | 43.79006 | 10.29570 | 30060 ft | 411 kts | 341° |
| 2026-05-07 14:34 | 43.81794 | 10.28799 | 29526 ft | 405 kts | 338° |
| 2026-05-07 14:34 | 43.84439 | 10.27644 | 29006 ft | 393 kts | 330° |
| 2026-05-07 14:35 | 43.86891 | 10.26069 | 28480 ft | 386 kts | 326° |
| 2026-05-07 14:35 | 43.89293 | 10.24429 | 27968 ft | 383 kts | 326° |
| 2026-05-07 14:35 | 43.91677 | 10.22804 | 27471 ft | 381 kts | 326° |
| 2026-05-07 14:35 | 43.94045 | 10.21186 | 26988 ft | 378 kts | 326° |
| 2026-05-07 14:36 | 43.96398 | 10.19578 | 26520 ft | 376 kts | 327° |
| 2026-05-07 14:36 | 43.98733 | 10.17980 | 26102 ft | 373 kts | 327° |
| 2026-05-07 14:36 | 44.01055 | 10.16388 | 25655 ft | 371 kts | 327° |
| 2026-05-07 14:36 | 44.03346 | 10.14782 | 25218 ft | 366 kts | 323° |
| 2026-05-07 14:37 | 44.05426 | 10.12828 | 24782 ft | 357 kts | 314° |
| 2026-05-07 14:37 | 44.08654 | 10.07818 | 23910 ft | 343 kts | 300° |
| 2026-05-07 14:37 | 44.09988 | 10.05076 | 23432 ft | 342 kts | 300° |
| 2026-05-07 14:38 | 44.11310 | 10.02382 | 22917 ft | 341 kts | 300° |
| 2026-05-07 14:38 | 44.12643 | 9.99668 | 22406 ft | 339 kts | 300° |
| 2026-05-07 14:38 | 44.13966 | 9.96965 | 21939 ft | 337 kts | 300° |
| 2026-05-07 14:38 | 44.15302 | 9.94232 | 21475 ft | 336 kts | 300° |
| 2026-05-07 14:39 | 44.16593 | 9.91587 | 21029 ft | 334 kts | 301° |
| 2026-05-07 14:39 | 44.17894 | 9.88917 | 20570 ft | 333 kts | 301° |
| 2026-05-07 14:39 | 44.19188 | 9.86257 | 20140 ft | 331 kts | 301° |
| 2026-05-07 14:39 | 44.20476 | 9.83604 | 19725 ft | 329 kts | 301° |
| 2026-05-07 14:40 | 44.21756 | 9.80966 | 19273 ft | 328 kts | 302° |
| 2026-05-07 14:40 | 44.23033 | 9.78328 | 18838 ft | 328 kts | 302° |
| 2026-05-07 14:40 | 44.24310 | 9.75695 | 18448 ft | 327 kts | 302° |
| 2026-05-07 14:40 | 44.25583 | 9.73074 | 18020 ft | 326 kts | 302° |
| 2026-05-07 14:41 | 44.26851 | 9.70461 | 17611 ft | 325 kts | 302° |
| 2026-05-07 14:41 | 44.28111 | 9.67856 | 17204 ft | 323 kts | 302° |
| 2026-05-07 14:41 | 44.29362 | 9.65263 | 16800 ft | 321 kts | 302° |
| 2026-05-07 14:41 | 44.30603 | 9.62689 | 16406 ft | 318 kts | 302° |
| 2026-05-07 14:42 | 44.31967 | 9.60265 | 15996 ft | 318 kts | 312° |
| 2026-05-07 14:42 | 44.33643 | 9.58253 | 15619 ft | 319 kts | 323° |
| 2026-05-07 14:42 | 44.35542 | 9.56644 | 15211 ft | 319 kts | 327° |
| 2026-05-07 14:42 | 44.37450 | 9.55087 | 14815 ft | 317 kts | 327° |
| 2026-05-07 14:43 | 44.39344 | 9.53535 | 14445 ft | 315 kts | 327° |
| 2026-05-07 14:43 | 44.41231 | 9.51988 | 14077 ft | 314 kts | 327° |
| 2026-05-07 14:43 | 44.43105 | 9.50448 | 13750 ft | 312 kts | 328° |
| 2026-05-07 14:43 | 44.44976 | 9.48913 | 13337 ft | 311 kts | 327° |
| 2026-05-07 14:44 | 44.46836 | 9.47388 | 12976 ft | 308 kts | 327° |
| 2026-05-07 14:44 | 44.48681 | 9.45873 | 12581 ft | 307 kts | 327° |
| 2026-05-07 14:44 | 44.50492 | 9.44380 | 12441 ft | 297 kts | 327° |
| 2026-05-07 14:44 | 44.52257 | 9.42918 | 12186 ft | 292 kts | 327° |
| 2026-05-07 14:45 | 44.53999 | 9.41469 | 12000 ft | 291 kts | 327° |
| 2026-05-07 14:45 | 44.55741 | 9.40021 | 11995 ft | 291 kts | 327° |
| 2026-05-07 14:45 | 44.57487 | 9.38572 | 11995 ft | 292 kts | 328° |
| 2026-05-07 14:45 | 44.59300 | 9.37288 | 11996 ft | 293 kts | 338° |
| 2026-05-07 14:46 | 44.61278 | 9.36586 | 12001 ft | 296 kts | 350° |
| 2026-05-07 14:46 | 44.63334 | 9.36364 | 11992 ft | 296 kts | 354° |
| 2026-05-07 14:46 | 44.65389 | 9.36166 | 11981 ft | 295 kts | 354° |
| 2026-05-07 14:46 | 44.67395 | 9.35962 | 11793 ft | 289 kts | 353° |
| 2026-05-07 14:47 | 44.69366 | 9.35758 | 11659 ft | 279 kts | 353° |
| 2026-05-07 14:47 | 44.71272 | 9.35560 | 11483 ft | 272 kts | 354° |
| 2026-05-07 14:47 | 44.73147 | 9.35366 | 11186 ft | 269 kts | 354° |
| 2026-05-07 14:47 | 44.75008 | 9.35173 | 10861 ft | 267 kts | 354° |
| 2026-05-07 14:48 | 44.76856 | 9.34981 | 10533 ft | 266 kts | 353° |
| 2026-05-07 14:48 | 44.78696 | 9.34790 | 10209 ft | 264 kts | 353° |
| 2026-05-07 14:48 | 44.80516 | 9.34984 | 10000 ft | 265 kts | 17° |
| 2026-05-07 14:48 | 44.82096 | 9.36314 | 9981 ft | 271 kts | 45° |
| 2026-05-07 14:49 | 44.83069 | 9.38576 | 9981 ft | 274 kts | 74° |
| 2026-05-07 14:49 | 44.83313 | 9.41239 | 9980 ft | 275 kts | 86° |
| 2026-05-07 14:49 | 44.83451 | 9.43931 | 9978 ft | 276 kts | 86° |
| 2026-05-07 14:49 | 44.83605 | 9.46621 | 9977 ft | 276 kts | 81° |
| 2026-05-07 14:50 | 44.84105 | 9.49214 | 9905 ft | 274 kts | 66° |
| 2026-05-07 14:50 | 44.85009 | 9.51560 | 9550 ft | 272 kts | 58° |
| 2026-05-07 14:50 | 44.85982 | 9.53835 | 9188 ft | 271 kts | 58° |
| 2026-05-07 14:50 | 44.86952 | 9.56109 | 8811 ft | 271 kts | 58° |
| 2026-05-07 14:51 | 44.87919 | 9.58379 | 8476 ft | 269 kts | 57° |
| 2026-05-07 14:51 | 44.89125 | 9.60295 | 8350 ft | 256 kts | 35° |
| 2026-05-07 14:51 | 44.90676 | 9.61380 | 8155 ft | 245 kts | 12° |
| 2026-05-07 14:51 | 44.92320 | 9.61595 | 7841 ft | 239 kts | 353° |
| 2026-05-07 14:52 | 44.93977 | 9.61410 | 7484 ft | 239 kts | 354° |
| 2026-05-07 14:52 | 44.95635 | 9.61233 | 7129 ft | 239 kts | 353° |
| 2026-05-07 14:52 | 44.97293 | 9.61062 | 6778 ft | 239 kts | 354° |
| 2026-05-07 14:52 | 44.98944 | 9.60891 | 6475 ft | 236 kts | 354° |
| 2026-05-07 14:53 | 45.00564 | 9.61048 | 6178 ft | 234 kts | 18° |
| 2026-05-07 14:53 | 45.01918 | 9.62254 | 6005 ft | 232 kts | 48° |
| 2026-05-07 14:53 | 45.02693 | 9.64250 | 6012 ft | 235 kts | 78° |
| 2026-05-07 14:53 | 45.02685 | 9.66534 | 6008 ft | 234 kts | 108° |
| 2026-05-07 14:54 | 45.01898 | 9.68509 | 6006 ft | 232 kts | 137° |
| 2026-05-07 14:54 | 45.00551 | 9.69684 | 6006 ft | 228 kts | 166° |
| 2026-05-07 14:54 | 44.98986 | 9.70002 | 6011 ft | 228 kts | 177° |
| 2026-05-07 14:54 | 44.97404 | 9.70171 | 6008 ft | 228 kts | 178° |
| 2026-05-07 14:55 | 44.95826 | 9.70319 | 6007 ft | 225 kts | 178° |
| 2026-05-07 14:55 | 44.94268 | 9.70463 | 6007 ft | 224 kts | 178° |
| 2026-05-07 14:55 | 44.92713 | 9.70521 | 6002 ft | 223 kts | 189° |
| 2026-05-07 14:55 | 44.91311 | 9.69814 | 6001 ft | 207 kts | 215° |
| 2026-05-07 14:56 | 44.90342 | 9.68449 | 6033 ft | 192 kts | 237° |
| 2026-05-07 14:56 | 44.89870 | 9.66716 | 6014 ft | 190 kts | 260° |
| 2026-05-07 14:56 | 44.89970 | 9.64861 | 6004 ft | 193 kts | 285° |
| 2026-05-07 14:56 | 44.90406 | 9.63059 | 6004 ft | 195 kts | 287° |
| 2026-05-07 14:57 | 44.90849 | 9.61258 | 6010 ft | 195 kts | 287° |
| 2026-05-07 14:57 | 44.91294 | 9.59454 | 6008 ft | 194 kts | 287° |
| 2026-05-07 14:57 | 44.91737 | 9.57661 | 6006 ft | 194 kts | 287° |
| 2026-05-07 14:57 | 44.92182 | 9.55861 | 6011 ft | 194 kts | 288° |
| 2026-05-07 14:58 | 44.92626 | 9.54062 | 6010 ft | 194 kts | 288° |
| 2026-05-07 14:58 | 44.93065 | 9.52286 | 6007 ft | 194 kts | 288° |
| 2026-05-07 14:58 | 44.93516 | 9.50461 | 6007 ft | 194 kts | 288° |
| 2026-05-07 14:58 | 44.93958 | 9.48661 | 6008 ft | 194 kts | 287° |
| 2026-05-07 14:59 | 44.94444 | 9.46885 | 5994 ft | 194 kts | 298° |
| 2026-05-07 14:59 | 44.95345 | 9.45514 | 5702 ft | 195 kts | 321° |
| 2026-05-07 14:59 | 44.96416 | 9.44327 | 5334 ft | 196 kts | 320° |
| 2026-05-07 14:59 | 44.97487 | 9.43143 | 5059 ft | 194 kts | 321° |
| 2026-05-07 15:00 | 44.98551 | 9.41969 | 5003 ft | 194 kts | 320° |
| 2026-05-07 15:00 | 44.99619 | 9.40791 | 5007 ft | 195 kts | 321° |
| 2026-05-07 15:00 | 45.00686 | 9.39612 | 5007 ft | 194 kts | 320° |
| 2026-05-07 15:00 | 45.01746 | 9.38436 | 5006 ft | 193 kts | 320° |
| 2026-05-07 15:01 | 45.02804 | 9.37263 | 5006 ft | 193 kts | 320° |
| 2026-05-07 15:01 | 45.03861 | 9.36090 | 5004 ft | 193 kts | 320° |
| 2026-05-07 15:01 | 45.04916 | 9.34917 | 5001 ft | 193 kts | 320° |
| 2026-05-07 15:01 | 45.05971 | 9.33742 | 5000 ft | 193 kts | 320° |
| 2026-05-07 15:02 | 45.07028 | 9.32568 | 5000 ft | 193 kts | 322° |
| 2026-05-07 15:02 | 45.08212 | 9.31708 | 4812 ft | 192 kts | 343° |
| 2026-05-07 15:02 | 45.09542 | 9.31468 | 4475 ft | 194 kts | 355° |
| 2026-05-07 15:02 | 45.10883 | 9.31332 | 4251 ft | 194 kts | 354° |
| 2026-05-07 15:03 | 45.12227 | 9.31189 | 4046 ft | 194 kts | 355° |
| 2026-05-07 15:03 | 45.13572 | 9.31044 | 3845 ft | 194 kts | 354° |
| 2026-05-07 15:03 | 45.14916 | 9.30898 | 3645 ft | 193 kts | 355° |
| 2026-05-07 15:03 | 45.16255 | 9.30752 | 3443 ft | 193 kts | 354° |
| 2026-05-07 15:04 | 45.17591 | 9.30607 | 3246 ft | 192 kts | 355° |
| 2026-05-07 15:04 | 45.18922 | 9.30461 | 3067 ft | 191 kts | 355° |
| 2026-05-07 15:04 | 45.20251 | 9.30313 | 2991 ft | 192 kts | 355° |
| 2026-05-07 15:04 | 45.21580 | 9.30168 | 2993 ft | 192 kts | 355° |
| 2026-05-07 15:05 | 45.22913 | 9.30025 | 2997 ft | 193 kts | 354° |
| 2026-05-07 15:05 | 45.24249 | 9.29882 | 2997 ft | 192 kts | 355° |
| 2026-05-07 15:05 | 45.25583 | 9.29739 | 3004 ft | 193 kts | 354° |
| 2026-05-07 15:05 | 45.26918 | 9.29596 | 3003 ft | 192 kts | 354° |
| 2026-05-07 15:06 | 45.28260 | 9.29452 | 3005 ft | 193 kts | 355° |
| 2026-05-07 15:06 | 45.29602 | 9.29309 | 2967 ft | 194 kts | 355° |
| 2026-05-07 15:06 | 45.30944 | 9.29165 | 2779 ft | 192 kts | 355° |
| 2026-05-07 15:06 | 45.32276 | 9.29022 | 2539 ft | 190 kts | 355° |
| 2026-05-07 15:07 | 45.33556 | 9.28885 | 2300 ft | 180 kts | 355° |
| 2026-05-07 15:07 | 45.34768 | 9.28755 | 2064 ft | 170 kts | 355° |
| 2026-05-07 15:07 | 45.35893 | 9.28634 | 1866 ft | 156 kts | 355° |
| 2026-05-07 15:07 | 45.36950 | 9.28520 | 1661 ft | 150 kts | 355° |
| 2026-05-07 15:08 | 45.37980 | 9.28411 | 1457 ft | 147 kts | 355° |
| 2026-05-07 15:08 | 45.39002 | 9.28299 | 1243 ft | 148 kts | 355° |
| 2026-05-07 15:08 | 45.40027 | 9.28188 | 1071 ft | 147 kts | 355° |
| 2026-05-07 15:08 | 45.40698 | 9.28117 | 933 ft | 146 kts | 354° |
| 2026-05-07 15:09 | 45.41712 | 9.28007 | 737 ft | 145 kts | 354° |
| 2026-05-07 15:09 | 45.42714 | 9.27897 | 549 ft | 144 kts | 353° |
| 2026-05-07 15:09 | 45.43711 | 9.27795 | 370 ft | 142 kts | 354° |
| 2026-05-07 15:09 | 45.44588 | 9.27699 | 362 ft | 105 kts | 355° |
| 2026-05-07 15:10 | 45.45146 | 9.27636 | 359 ft | 54 kts | 355° |
| 2026-05-07 15:10 | 45.45267 | 9.27648 | 358 ft | 7 kts | 14° |
| 2026-05-07 15:10 | 45.45314 | 9.27664 | 361 ft | 6 kts | 14° |
| 2026-05-07 15:10 | 45.45352 | 9.27686 | 362 ft | 5 kts | 26° |
| 2026-05-07 15:11 | 45.45378 | 9.27706 | 359 ft | 4 kts | 27° |
| 2026-05-07 15:11 | 45.45408 | 9.27729 | 365 ft | 4 kts | 29° |
| 2026-05-07 15:11 | 45.45434 | 9.27755 | 361 ft | 6 kts | 42° |
| 2026-05-07 15:11 | 45.45459 | 9.27797 | 360 ft | 5 kts | 46° |
| 2026-05-07 15:12 | 45.45486 | 9.27812 | 360 ft | 5 kts | 11° |
| 2026-05-07 15:12 | 45.45538 | 9.27815 | 364 ft | 8 kts | 0° |
| 2026-05-07 15:12 | 45.45599 | 9.27816 | 360 ft | 10 kts | 0° |
| 2026-05-07 15:12 | 45.45669 | 9.27817 | 360 ft | 9 kts | 0° |
| 2026-05-07 15:13 | 45.45730 | 9.27818 | 360 ft | 8 kts | 0° |
| 2026-05-07 15:13 | 45.45792 | 9.27819 | 362 ft | 9 kts | 1° |
| 2026-05-07 15:13 | 45.45854 | 9.27820 | 360 ft | 8 kts | 1° |
| 2026-05-07 15:13 | 45.45892 | 9.27830 | 360 ft | 5 kts | 30° |
| 2026-05-07 15:14 | 45.45905 | 9.27865 | 365 ft | 4 kts | 78° |
| 2026-05-07 15:14 | 45.45912 | 9.27891 | 363 ft | 2 kts | 54° |
| 2026-05-07 15:14 | 45.45927 | 9.27901 | 360 ft | 3 kts | 19° |
| 2026-05-07 15:14 | 45.45949 | 9.27903 | 360 ft | 3 kts | 0° |
| 2026-05-07 15:15 | 45.45966 | 9.27904 | 360 ft | 1 kts | 0° |
| 2026-05-07 15:15 | 45.45972 | 9.27904 | 360 ft | 0 kts | 0° |
| 2026-05-07 15:15 | 45.45974 | 9.27904 | 360 ft | 0 kts | 0° |